EmailTwitter


Surface observations / United Kingdom / EGLL (03772)

Regions: Quebec | Canada | USA | Europe | France | UK | Elsewhere
Station
Display
Info & Location for EGLL (03772) | Help decoding METAR

Weather Conditions observed on 2017/08/20 at 05:50 UTC at LONDON/HEATHROW, UK (EGLL)

Temperature: 10.0 Celsius.

Dewpoint: 9.0 Celsius.

Relative Humidity: 93%

Winds: Southwest at 11 km/h or 6 knots.

Mean Sea level Pressure: 102.30 kilopascals.

Horizontal visibility: 6.21 statute miles or 9.94 kilometers.

Coded METAR:

EGLL 200550Z AUTO 24006KT 9999 NCD 10/09 Q1023 NOSIG=